»·PEaware :: BAW2312 RJAA-KPDX

BAW2312 :: RJAA-KPDX

FLIGHT INFORMATION

Flight Status: Arrived
Operator:
British Airways
More flights by this operator :: More flights under this callsign
Pilot: Alan J. (5709)
Aircraft: LOCKHEED L-1011 TRI-STAR
(L101)
More flights by this aircraft type
Origin: RJAA New Tokyo Intl (Narita)
Japan
Destination: KPDX Portland Intl
United States
More flights between these airports :: More routes between these airports
Route: PABBA A590 PINTT G469 SPY R591 EHM T223 TED J804R MDO B453 KURTT HQM
File this flight plan on PilotEdge
Remarks:
Altitude:
(Current/Filed)
35,000ft
Speed:
(Current/Filed)
490kts
Departed: 17-Feb-17 07:36 PM
Arrived: 17-Feb-17 09:55 PM
Distance/Time
Traveled:
4178nm/2:19
Distance/Time
To Go:
Arrived

Flight Plot

Page will automatically refresh every two minutes.

Flight plan parsing failed; only flown route is shown


Map Options




Map Legend


Flown Route
Filed Route
Departure Airport
Arrival Airport
Navaid (VOR, NDB)
Fix

Horizontal Profiles

Position Reports

Time Latitude Longitude Heading Altitude Ground
Speed
17-Feb-17 18:41 35.765591 140.381378 119 151ft 0kts
17-Feb-17 18:42 35.765591 140.381378 119 151ft 0kts
17-Feb-17 18:43 35.765591 140.381378 119 151ft 0kts
17-Feb-17 18:44 35.765591 140.381378 119 151ft 0kts
17-Feb-17 18:45 35.765591 140.381378 119 151ft 0kts
17-Feb-17 18:46 35.765591 140.381378 119 151ft 0kts
17-Feb-17 18:47 35.765591 140.381378 119 151ft 0kts
17-Feb-17 18:48 35.765591 140.381378 119 151ft 0kts
17-Feb-17 18:49 35.765591 140.381378 119 151ft 0kts
17-Feb-17 18:50 35.765591 140.381378 119 151ft 0kts
17-Feb-17 18:51 35.765591 140.381378 119 151ft 0kts
17-Feb-17 18:52 35.765591 140.381378 119 151ft 0kts
17-Feb-17 18:53 35.765591 140.381378 119 151ft 0kts
17-Feb-17 18:54 35.765591 140.381378 119 151ft 0kts
17-Feb-17 18:55 35.765591 140.381378 119 151ft 0kts
17-Feb-17 18:56 35.765591 140.381378 119 151ft 0kts
17-Feb-17 18:57 35.765591 140.381378 119 151ft 0kts
17-Feb-17 18:58 35.765591 140.381378 119 151ft 0kts
17-Feb-17 18:59 35.765591 140.381378 119 151ft 0kts
17-Feb-17 19:00 35.765591 140.381378 119 151ft 0kts
17-Feb-17 19:01 35.765591 140.381378 119 151ft 0kts
17-Feb-17 19:02 35.765591 140.381378 119 151ft 0kts
17-Feb-17 19:03 35.765591 140.381378 119 151ft 0kts
17-Feb-17 19:04 35.765591 140.381378 119 151ft 0kts
17-Feb-17 19:05 35.765591 140.381378 119 151ft 0kts
17-Feb-17 19:06 35.765591 140.381378 119 151ft 0kts
17-Feb-17 19:07 35.765591 140.381378 119 151ft 0kts
17-Feb-17 19:08 35.765591 140.381378 119 151ft 0kts
17-Feb-17 19:09 35.765591 140.381378 119 151ft 0kts
17-Feb-17 19:10 35.765591 140.381378 119 151ft 0kts
17-Feb-17 19:11 35.765591 140.381378 119 151ft 0kts
17-Feb-17 19:12 35.765591 140.381378 119 151ft 0kts
17-Feb-17 19:13 35.765591 140.381378 119 151ft 0kts
17-Feb-17 19:14 35.765591 140.381378 119 151ft 0kts
17-Feb-17 19:15 35.765591 140.381378 119 151ft 0kts
17-Feb-17 19:16 35.765591 140.381378 119 151ft 0kts
17-Feb-17 19:17 35.765591 140.381378 119 151ft 0kts
17-Feb-17 19:18 35.765591 140.381378 119 151ft 0kts
17-Feb-17 19:19 35.765659 140.381231 119 151ft 2kts
17-Feb-17 19:20 35.766059 140.380373 119 151ft 2kts
17-Feb-17 19:21 35.766092 140.380302 119 151ft 0kts
17-Feb-17 19:22 35.766092 140.380302 119 151ft 0kts
17-Feb-17 19:23 35.766092 140.380302 119 151ft 0kts
17-Feb-17 19:24 35.766092 140.380302 119 151ft 0kts
17-Feb-17 19:25 35.766092 140.380302 119 151ft 0kts
17-Feb-17 19:26 35.766092 140.380302 119 151ft 0kts
17-Feb-17 19:27 35.766092 140.380302 119 151ft 0kts
17-Feb-17 19:28 35.765993 140.380402 155 151ft 1kts
17-Feb-17 19:29 35.763831 140.381150 149 151ft 14kts
17-Feb-17 19:30 35.759070 140.384586 149 151ft 24kts
17-Feb-17 19:31 35.754169 140.388304 148 151ft 0kts
17-Feb-17 19:32 35.752389 140.388062 207 151ft 13kts
17-Feb-17 19:33 35.748038 140.390121 148 151ft 22kts
17-Feb-17 19:34 35.744615 140.391594 240 151ft 0kts
17-Feb-17 19:35 35.744157 140.390198 297 151ft 9kts
17-Feb-17 19:36 35.752933 140.383789 329 151ft 110kts
17-Feb-17 19:37 35.790138 140.356686 332 1132ft 169kts
17-Feb-17 19:38 35.842789 140.349239 27 2756ft 244kts
17-Feb-17 19:39 35.862035 140.425221 96 4649ft 258kts
17-Feb-17 19:40 35.852637 140.516951 98 6691ft 282kts
17-Feb-17 19:41 35.852354 140.614878 84 8983ft 294kts
17-Feb-17 19:42 35.869113 140.696079 75 11027ft 282kts
17-Feb-17 19:43 35.890858 140.781342 53 12220ft 280kts
17-Feb-17 19:44 35.949635 140.826665 44 12997ft 269kts
17-Feb-17 19:45 36.002575 140.883174 349 13307ft 246kts
17-Feb-17 19:46 36.065647 140.934036 63 13607ft 335kts
17-Feb-17 19:47 36.091011 141.054261 72 13906ft 395kts
17-Feb-17 19:48 36.111667 141.197316 95 15463ft 442kts
17-Feb-17 19:49 36.110828 141.352144 78 18077ft 466kts
17-Feb-17 19:50 36.145377 141.511854 76 19888ft 495kts
17-Feb-17 19:51 36.198088 141.670611 45 21467ft 512kts
17-Feb-17 19:52 36.274651 141.821273 66 23335ft 529kts
17-Feb-17 19:53 36.321953 141.997266 73 24629ft 548kts
17-Feb-17 19:54 36.386672 142.169192 55 25875ft 556kts
17-Feb-17 19:55 36.458137 142.340151 65 27142ft 566kts
17-Feb-17 19:56 36.513670 142.526219 68 28050ft 578kts
17-Feb-17 19:58 36.569420 142.714770 63 28817ft 585kts
17-Feb-17 19:59 36.638005 142.898915 61 29581ft 589kts
17-Feb-17 20:00 36.696208 143.088952 78 30222ft 597kts
17-Feb-17 20:01 36.758497 143.280331 54 30342ft 597kts
17-Feb-17 20:02 36.839568 143.460448 65 30994ft 599kts
17-Feb-17 20:03 36.889697 143.661141 73 31027ft 610kts
17-Feb-17 20:04 36.943490 143.860676 65 31509ft 604kts
17-Feb-17 20:05 37.018249 144.046699 41 31976ft 584kts
17-Feb-17 20:06 37.135721 144.179115 28 32492ft 564kts
17-Feb-17 20:07 37.257698 144.302831 28 32984ft 566kts
17-Feb-17 20:08 37.377957 144.430834 30 33478ft 568kts
17-Feb-17 20:09 37.497500 144.561879 30 33973ft 568kts
17-Feb-17 20:10 37.616189 144.692885 30 34466ft 567kts
17-Feb-17 20:11 37.734333 144.824325 30 34922ft 568kts
17-Feb-17 20:12 37.853331 144.957305 30 34916ft 575kts
17-Feb-17 20:13 37.971935 145.095290 33 34953ft 581kts
17-Feb-17 20:14 38.088163 145.238129 34 34952ft 584kts
17-Feb-17 20:15 38.204341 145.382389 34 34954ft 585kts
17-Feb-17 20:16 38.321444 145.526089 33 34953ft 586kts
17-Feb-17 20:17 41.146435 149.024751 34 34854ft 585kts
17-Feb-17 20:18 41.264053 149.174233 34 34715ft 586kts
17-Feb-17 20:19 44.967606 154.567653 37 34565ft 571kts
17-Feb-17 20:19 48.370793 160.798113 49 34530ft 549kts
17-Feb-17 20:21 48.472234 161.012252 58 34539ft 531kts
17-Feb-17 20:22 50.444512 165.625704 59 34626ft 532kts
17-Feb-17 20:22 52.294084 170.666145 61 34757ft 524kts
17-Feb-17 20:23 52.364744 170.869970 52 34871ft 512kts
17-Feb-17 20:24 52.460384 171.038220 39 34874ft 503kts
17-Feb-17 20:25 53.493635 173.419005 52 34920ft 508kts
17-Feb-17 20:26 55.307881 178.680683 62 34939ft 506kts
17-Feb-17 20:27 56.736255 -176.239092 67 34929ft 500kts
17-Feb-17 20:28 56.763963 -175.991694 87 34748ft 498kts
17-Feb-17 20:29 56.909672 -173.766801 89 34814ft 499kts
17-Feb-17 20:30 56.926251 -173.516330 78 34825ft 496kts
17-Feb-17 20:31 56.957354 -173.270592 75 34827ft 496kts
17-Feb-17 20:32 57.188280 -170.008415 67 34847ft 499kts
17-Feb-17 20:33 58.067224 -165.141179 65 34847ft 504kts
17-Feb-17 20:34 58.680958 -161.929578 71 34615ft 514kts
17-Feb-17 20:35 58.706352 -161.661613 85 34622ft 509kts
17-Feb-17 20:36 59.037051 -158.300947 52 34564ft 512kts
17-Feb-17 20:37 59.130545 -158.093378 50 34560ft 510kts
17-Feb-17 20:38 59.877129 -155.476279 62 34685ft 516kts
17-Feb-17 20:39 60.354961 -153.636697 66 34521ft 520kts
17-Feb-17 20:40 60.801060 -151.689030 65 34566ft 519kts
17-Feb-17 20:41 60.861978 -151.423119 65 34572ft 514kts
17-Feb-17 20:42 61.194550 -149.788522 89 34580ft 511kts
17-Feb-17 20:43 61.144990 -149.528942 138 34573ft 489kts
17-Feb-17 20:44 61.025921 -149.401932 163 34569ft 482kts
17-Feb-17 20:45 60.897775 -149.322059 161 34551ft 483kts
17-Feb-17 20:46 60.429282 -148.384604 140 34590ft 497kts
17-Feb-17 20:47 59.407499 -146.321230 132 34868ft 499kts
17-Feb-17 20:48 53.929434 -135.885899 145 34786ft 499kts
17-Feb-17 20:49 51.970127 -133.694920 145 34875ft 505kts
17-Feb-17 20:50 50.162397 -131.844128 136 34836ft 516kts
17-Feb-17 20:51 50.095463 -131.646958 110 34782ft 521kts
17-Feb-17 20:52 50.048271 -131.433432 115 34781ft 518kts
17-Feb-17 20:53 49.977434 -131.239549 125 34776ft 516kts
17-Feb-17 20:54 49.896162 -131.056376 126 34771ft 515kts
17-Feb-17 20:55 49.814862 -130.873699 125 34770ft 515kts
17-Feb-17 20:56 49.741851 -130.682987 119 34756ft 516kts
17-Feb-17 20:57 49.676695 -130.484972 118 34752ft 516kts
17-Feb-17 20:58 49.610454 -130.289346 120 34749ft 514kts
17-Feb-17 20:59 49.534935 -130.103476 125 34747ft 512kts
17-Feb-17 21:00 49.456028 -129.921660 125 34745ft 511kts
17-Feb-17 21:01 49.380363 -129.736150 122 34743ft 512kts
17-Feb-17 21:02 49.309067 -129.547140 121 34741ft 512kts
17-Feb-17 21:03 49.238432 -129.358033 121 34740ft 512kts
17-Feb-17 21:04 49.167952 -129.168966 121 34737ft 512kts
17-Feb-17 21:05 49.095792 -128.981279 124 34730ft 511kts
17-Feb-17 21:06 49.018820 -128.799594 125 34725ft 510kts
17-Feb-17 21:07 48.941267 -128.619046 125 34723ft 510kts
17-Feb-17 21:08 48.863907 -128.438911 125 34716ft 509kts
17-Feb-17 21:09 48.786508 -128.258436 125 34706ft 509kts
17-Feb-17 21:10 48.711511 -128.076859 123 34703ft 509kts
17-Feb-17 21:11 48.640376 -127.891883 122 34698ft 508kts
17-Feb-17 21:12 48.570291 -127.706806 122 34674ft 508kts
17-Feb-17 21:13 48.500291 -127.521415 122 34672ft 507kts
17-Feb-17 21:14 48.421463 -127.347096 131 34671ft 502kts
17-Feb-17 21:15 48.334973 -127.182672 131 34675ft 502kts
17-Feb-17 21:16 48.253342 -127.012812 124 34673ft 504kts
17-Feb-17 21:17 48.184547 -126.828793 121 34669ft 505kts
17-Feb-17 21:18 48.112874 -126.649378 127 34663ft 500kts
17-Feb-17 21:19 48.032963 -126.480105 129 34660ft 498kts
17-Feb-17 21:20 47.953628 -126.310872 127 34654ft 498kts
17-Feb-17 21:21 47.877823 -126.138414 126 34664ft 498kts
17-Feb-17 21:22 47.802647 -125.964785 126 34658ft 498kts
17-Feb-17 21:23 47.726845 -125.793146 128 34607ft 497kts
17-Feb-17 21:24 47.648789 -125.624561 130 34612ft 495kts
17-Feb-17 21:25 47.568198 -125.459047 130 34607ft 495kts
17-Feb-17 21:26 47.487509 -125.293696 130 34603ft 494kts
17-Feb-17 21:27 47.407885 -125.128836 130 34601ft 493kts
17-Feb-17 21:28 47.328939 -124.963937 130 34598ft 492kts
17-Feb-17 21:29 47.250578 -124.798971 130 34594ft 492kts
17-Feb-17 21:30 47.176748 -124.628466 126 34589ft 495kts
17-Feb-17 21:31 47.104664 -124.456807 131 34582ft 489kts
17-Feb-17 21:32 47.019147 -124.303756 137 34579ft 483kts
17-Feb-17 21:33 46.933925 -124.154418 129 33872ft 483kts
17-Feb-17 21:34 46.852085 -124.004334 144 31450ft 452kts
17-Feb-17 21:35 46.755157 -123.901874 155 28954ft 414kts
17-Feb-17 21:36 46.658040 -123.817088 149 26450ft 404kts
17-Feb-17 21:37 46.575316 -123.706863 139 23962ft 401kts
17-Feb-17 21:38 46.488761 -123.607437 148 23558ft 394kts
17-Feb-17 21:39 46.398671 -123.517714 148 22539ft 390kts
17-Feb-17 21:40 46.314705 -123.421297 140 20045ft 382kts
17-Feb-17 21:41 46.237503 -123.318570 139 17549ft 372kts
17-Feb-17 21:42 46.158066 -123.227490 145 15141ft 355kts
17-Feb-17 21:43 46.070723 -123.177452 165 13445ft 318kts
17-Feb-17 21:44 45.989937 -123.149027 166 11634ft 283kts
17-Feb-17 21:45 45.921764 -123.106616 140 9823ft 261kts
17-Feb-17 21:46 45.866259 -123.039270 137 8024ft 258kts
17-Feb-17 21:47 45.810859 -122.976107 143 6225ft 251kts
17-Feb-17 21:48 45.752419 -122.924259 145 4426ft 244kts
17-Feb-17 21:49 45.701164 -122.879140 139 3872ft 187kts
17-Feb-17 21:50 45.673726 -122.823775 115 3135ft 140kts
17-Feb-17 21:51 45.654772 -122.774831 117 2472ft 162kts
17-Feb-17 21:52 45.634533 -122.722874 117 1541ft 145kts
17-Feb-17 21:53 45.615023 -122.672724 119 729ft 139kts
17-Feb-17 21:54 45.597070 -122.626227 117 168ft 127kts
17-Feb-17 21:55 45.585134 -122.595773 119 46ft 33kts
17-Feb-17 21:56 45.584352 -122.591773 30 46ft 10kts
17-Feb-17 21:57 45.584900 -122.590792 32 46ft 0kts
17-Feb-17 21:58 45.584901 -122.590792 32 46ft 0kts
17-Feb-17 21:59 45.584901 -122.590792 32 46ft 0kts
17-Feb-17 22:00 45.584901 -122.590792 32 46ft 0kts
17-Feb-17 22:01 45.584901 -122.590792 32 46ft 0kts
17-Feb-17 22:02 45.584901 -122.590792 32 46ft 0kts
17-Feb-17 22:03 45.584901 -122.590792 32 46ft 0kts

Navigation Log

Ident Type
Flight plan parsing failed, navigation log unavailable